createdAt,value
2019-04-29T11:29:06.139Z,35.986328
2019-04-29T11:30:42.920Z,38.372803
2019-04-29T11:31:32.390Z,36.2854
2019-04-29T11:31:53.929Z,36.767578
2019-04-29T11:33:13.261Z,35.552979
2019-04-29T11:34:05.278Z,35.144043
2019-04-29T11:34:33.313Z,37.225342
2019-04-29T11:35:03.015Z,35.058594
2019-04-29T11:35:35.591Z,35.15625
2019-04-29T11:36:09.459Z,33.966064
2019-04-29T11:36:23.297Z,33.966064
2019-04-29T11:42:52.032Z,35.388184
2019-04-29T11:43:41.567Z,35.986328
2019-04-29T11:57:57.644Z,45.788574
2019-04-29T11:59:31.770Z,40.026855
2019-04-29T12:00:09.895Z,40.240479
2019-04-29T12:01:17.704Z,38.15918
2019-04-29T12:02:46.151Z,37.561035
2019-04-29T12:03:44.250Z,38.751221
2019-04-29T12:05:11.793Z,36.566162
2019-04-29T12:06:51.125Z,35.986328
2019-04-29T12:08:16.823Z,36.779785
2019-04-29T12:09:12.463Z,35.791016
2019-04-29T12:11:06.878Z,35.174561
2019-04-29T12:11:58.522Z,36.151123
2019-04-29T12:13:18.870Z,33.551025
2019-04-29T12:14:57.196Z,38.934326
2019-04-29T12:17:42.748Z,34.399414
2019-04-29T12:18:42.865Z,35.028076
2019-04-29T12:19:42.914Z,35.327148
2019-04-29T12:20:43.040Z,39.105225
2019-04-29T12:21:43.242Z,34.759521
2019-04-29T12:22:48.329Z,37.036133
2019-04-29T12:23:43.325Z,36.218262
2019-04-29T12:24:45.128Z,29.626465
2019-04-29T12:25:43.471Z,34.844971
2019-04-29T12:26:44.698Z,41.253662
2019-04-29T12:27:43.644Z,39.18457
2019-04-29T12:28:44.833Z,39.422607
2019-04-29T12:29:43.887Z,39.520264
2019-04-29T12:30:45.032Z,42.614746
2019-04-29T12:31:49.183Z,43.304443
2019-04-29T12:32:44.214Z,42.596436
2019-04-29T12:33:44.384Z,42.376709
2019-04-29T12:34:44.497Z,41.772461
2019-04-29T12:35:51.842Z,42.553711
2019-04-29T12:36:55.715Z,42.095947
2019-04-29T12:37:45.725Z,40.667725
2019-04-29T12:38:49.485Z,37.445068
2019-04-29T12:39:45.952Z,36.328125
2019-04-29T12:40:49.766Z,37.548828
2019-04-29T12:41:49.330Z,38.421631
2019-04-29T12:42:45.267Z,42.211914
2019-04-29T12:43:48.459Z,44.421387
2019-04-29T12:44:46.479Z,41.534424
2019-04-29T12:45:45.395Z,40.17334
2019-04-29T12:46:46.725Z,38.94043
2019-04-29T12:47:45.695Z,38.40332
2019-04-29T12:48:45.845Z,39.099121
2019-04-29T12:49:48.151Z,37.786865
2019-04-29T12:50:45.868Z,38.464355
2019-04-29T12:51:46.968Z,38.250732
2019-04-29T12:52:46.033Z,37.249756
2019-04-29T12:53:46.306Z,37.353516
2019-04-29T12:54:47.701Z,37.249756
2019-04-29T12:55:51.428Z,37.072754
2019-04-29T12:56:49.429Z,37.072754
2019-04-29T12:57:46.568Z,37.17041
2019-04-29T12:58:50.360Z,37.072754
2019-04-29T12:59:47.729Z,37.17041
2019-04-29T13:00:56.022Z,37.072754
2019-04-29T13:01:51.663Z,37.17041
2019-04-29T13:02:47.978Z,37.268066
2019-04-29T13:03:47.979Z,37.268066
2019-04-29T13:04:49.734Z,37.1521
2019-04-29T13:05:57.896Z,37.268066
2019-04-29T13:06:48.216Z,37.249756
2019-04-29T13:07:47.331Z,37.268066
2019-04-29T13:08:47.449Z,37.249756
2019-04-29T13:09:47.451Z,37.353516
2019-04-29T13:10:47.600Z,37.1521
2019-04-29T13:11:53.338Z,37.1521
2019-04-29T13:12:48.873Z,37.17041
2019-04-29T13:13:51.238Z,37.371826
2019-04-29T13:15:02.187Z,37.371826
2019-04-29T13:15:50.209Z,37.469482
2019-04-29T13:16:50.719Z,37.371826
2019-04-29T13:18:02.160Z,37.469482
2019-04-29T13:18:53.715Z,37.268066
2019-04-29T13:20:01.434Z,37.268066
2019-04-29T13:20:53.429Z,37.469482
2019-04-29T13:21:49.903Z,37.371826
2019-04-29T13:22:49.063Z,37.469482
2019-04-29T13:23:59.370Z,37.469482
2019-04-29T13:24:50.401Z,37.567139
2019-04-29T13:25:50.852Z,37.072754
2019-04-29T13:26:49.443Z,37.268066
2019-04-29T13:27:49.533Z,37.768555
